Hauptseite
METAR-TAF:

METAR-TAF

Flughäfen :

Flughafen Dortmund

Dortmund, Deutschland

Breite: 51-31N, Länge: 007-37E, Höhe: 127 m

Beobachtung

Neuester Wetterbericht von vor 28 Minuten, um 20:20 UTC
Windstille
Temperatur 6°C
Luftfeuchtigkeit 70%
Luftdruck 1019 hPa
Sichtweite 10 km oder mehr

METAR: EDLW 032020Z AUTO 00000KT 9999 // FEW047/// BKN054/// 06/01 Q1019

Zeit: 22:48 (20:48 UTC)

Prognose

Neuester Wetterbericht von vor 12 Stunden und 45 Minuten, um 08:03 UTC
Gültige Prognose vom 03 um 08 UTC bis 04 um 06 UTC
Wind 7 kt aus West
Sichtweite 10 km oder mehr
Durchbrochene Bewölkung in der Höhe von 1100 ft
Übergehend zu
vom 03 um 08 UTC bis 03 um 11 UTC
Durchbrochene Bewölkung in der Höhe von 2000 ft
Übergehend zu
vom 03 um 22 UTC bis 04 um 01 UTC
Wind 6 kt aus Süd

TAF: EDLW 030803Z 0308/0406 27007KT 9999 BKN011 BECMG 0308/0311 BKN020 BECMG 0322/0401 18006KT

Wetterbeobachtungen und Prognosen von mehr als 4000 Flughäfen (METAR und TAF Bericht).

Die verfügbaren Stationen werden durch gelbe und rote Markierungen auf der Karte dargestellt.

Führen Sie die Maus auf sie, um den Namen der Station zu sehen.

Darauf klicken, um die Beobachtung von Wetterbeobachtungen und Prognosen zu sehen.

Um die Karte zu ändern : klicken Sie auf den grünen Tasten mit einem schwarzen Kreuz Zum Vergrößern, auf den grünen Button mit einem Gedankenstrich zu verkleinern, oder auf die grünen Pfeile für benachbarte Karten.


METAR-TAF: